sensor_id;sensor_type;location;lat;lon;timestamp;temperature;humidity
36800;DHT22;22752;51.960;5.886;2023-03-01T00:02:00;-1.00;99.90
36800;DHT22;22752;51.960;5.886;2023-03-01T00:04:26;-1.00;99.90
36800;DHT22;22752;51.960;5.886;2023-03-01T00:06:53;-1.00;99.90
36800;DHT22;22752;51.960;5.886;2023-03-01T00:09:19;-1.10;99.90
36800;DHT22;22752;51.960;5.886;2023-03-01T00:11:45;-1.10;99.90
36800;DHT22;22752;51.960;5.886;2023-03-01T00:14:10;-1.10;99.90
36800;DHT22;22752;51.960;5.886;2023-03-01T00:16:39;-1.10;99.90
36800;DHT22;22752;51.960;5.886;2023-03-01T00:19:05;-1.10;99.90
36800;DHT22;22752;51.960;5.886;2023-03-01T00:21:32;-1.00;99.90
36800;DHT22;22752;51.960;5.886;2023-03-01T00:23:59;-1.10;99.90
36800;DHT22;22752;51.960;5.886;2023-03-01T00:26:26;-1.10;99.90
36800;DHT22;22752;51.960;5.886;2023-03-01T00:28:52;-1.10;99.90
36800;DHT22;22752;51.960;5.886;2023-03-01T00:31:20;-1.10;99.90
36800;DHT22;22752;51.960;5.886;2023-03-01T00:33:46;-1.20;99.90
36800;DHT22;22752;51.960;5.886;2023-03-01T00:36:14;-1.30;99.90
36800;DHT22;22752;51.960;5.886;2023-03-01T00:38:44;-1.30;99.90
36800;DHT22;22752;51.960;5.886;2023-03-01T00:41:15;-1.40;99.90
36800;DHT22;22752;51.960;5.886;2023-03-01T00:43:40;-1.40;99.90
36800;DHT22;22752;51.960;5.886;2023-03-01T00:46:10;-1.40;99.90
36800;DHT22;22752;51.960;5.886;2023-03-01T00:48:36;-1.40;99.90
36800;DHT22;22752;51.960;5.886;2023-03-01T00:51:23;-1.40;99.90
36800;DHT22;22752;51.960;5.886;2023-03-01T00:53:57;-1.50;99.90
36800;DHT22;22752;51.960;5.886;2023-03-01T00:56:23;-1.50;99.90
36800;DHT22;22752;51.960;5.886;2023-03-01T00:58:49;-1.60;99.90
36800;DHT22;22752;51.960;5.886;2023-03-01T01:01:27;-1.60;99.90
36800;DHT22;22752;51.960;5.886;2023-03-01T01:04:04;-1.60;99.90
36800;DHT22;22752;51.960;5.886;2023-03-01T01:06:36;-1.60;99.90
36800;DHT22;22752;51.960;5.886;2023-03-01T01:09:04;-1.70;99.90
36800;DHT22;22752;51.960;5.886;2023-03-01T01:11:31;-1.70;99.90
36800;DHT22;22752;51.960;5.886;2023-03-01T01:13:57;-1.70;99.90
36800;DHT22;22752;51.960;5.886;2023-03-01T01:16:24;-1.70;99.90
36800;DHT22;22752;51.960;5.886;2023-03-01T01:18:51;-1.70;99.90
36800;DHT22;22752;51.960;5.886;2023-03-01T01:21:20;-1.70;99.90
36800;DHT22;22752;51.960;5.886;2023-03-01T01:23:47;-1.80;99.90
36800;DHT22;22752;51.960;5.886;2023-03-01T01:26:21;-1.80;99.90
36800;DHT22;22752;51.960;5.886;2023-03-01T01:28:47;-1.80;99.90
36800;DHT22;22752;51.960;5.886;2023-03-01T01:31:14;-1.90;99.90
36800;DHT22;22752;51.960;5.886;2023-03-01T01:33:40;-1.80;99.90
36800;DHT22;22752;51.960;5.886;2023-03-01T01:36:07;-1.80;99.90
36800;DHT22;22752;51.960;5.886;2023-03-01T01:38:33;-1.80;99.90
36800;DHT22;22752;51.960;5.886;2023-03-01T01:40:59;-1.80;99.90
36800;DHT22;22752;51.960;5.886;2023-03-01T01:43:28;-1.90;99.90
36800;DHT22;22752;51.960;5.886;2023-03-01T01:46:01;-1.90;99.90
36800;DHT22;22752;51.960;5.886;2023-03-01T01:48:38;-2.00;99.90
36800;DHT22;22752;51.960;5.886;2023-03-01T01:51:08;-2.00;99.90
36800;DHT22;22752;51.960;5.886;2023-03-01T01:53:35;-1.90;99.90
36800;DHT22;22752;51.960;5.886;2023-03-01T01:56:02;-1.90;99.90
36800;DHT22;22752;51.960;5.886;2023-03-01T01:58:30;-1.80;99.90
36800;DHT22;22752;51.960;5.886;2023-03-01T02:00:56;-1.70;99.90
36800;DHT22;22752;51.960;5.886;2023-03-01T02:03:29;-1.60;99.90
36800;DHT22;22752;51.960;5.886;2023-03-01T02:08:49;-1.50;99.90
36800;DHT22;22752;51.960;5.886;2023-03-01T02:11:17;-1.50;99.90
36800;DHT22;22752;51.960;5.886;2023-03-01T02:13:44;-1.60;99.90
36800;DHT22;22752;51.960;5.886;2023-03-01T02:16:14;-1.50;99.90
36800;DHT22;22752;51.960;5.886;2023-03-01T02:18:41;-1.50;99.90
36800;DHT22;22752;51.960;5.886;2023-03-01T02:21:38;-1.50;99.90
36800;DHT22;22752;51.960;5.886;2023-03-01T02:24:24;-1.50;99.90
36800;DHT22;22752;51.960;5.886;2023-03-01T02:26:55;-1.50;99.90
36800;DHT22;22752;51.960;5.886;2023-03-01T02:29:23;-1.30;99.90
36800;DHT22;22752;51.960;5.886;2023-03-01T02:31:49;-1.20;99.90
36800;DHT22;22752;51.960;5.886;2023-03-01T02:34:20;-1.10;99.90
36800;DHT22;22752;51.960;5.886;2023-03-01T02:36:56;-1.10;99.90
36800;DHT22;22752;51.960;5.886;2023-03-01T02:39:28;-0.90;99.90
36800;DHT22;22752;51.960;5.886;2023-03-01T02:41:56;-0.90;99.90
36800;DHT22;22752;51.960;5.886;2023-03-01T02:44:23;-0.90;99.90
36800;DHT22;22752;51.960;5.886;2023-03-01T02:46:51;-0.90;99.90
36800;DHT22;22752;51.960;5.886;2023-03-01T02:49:27;-0.90;99.90
36800;DHT22;22752;51.960;5.886;2023-03-01T02:55:02;-0.90;99.90
36800;DHT22;22752;51.960;5.886;2023-03-01T02:57:27;-1.00;99.90
36800;DHT22;22752;51.960;5.886;2023-03-01T02:59:55;-1.00;99.90
36800;DHT22;22752;51.960;5.886;2023-03-01T03:02:26;-1.00;99.90
36800;DHT22;22752;51.960;5.886;2023-03-01T03:05:15;-1.10;99.90
36800;DHT22;22752;51.960;5.886;2023-03-01T03:07:43;-1.20;99.90
36800;DHT22;22752;51.960;5.886;2023-03-01T03:10:13;-1.20;99.90
36800;DHT22;22752;51.960;5.886;2023-03-01T03:12:39;-1.30;99.90
36800;DHT22;22752;51.960;5.886;2023-03-01T03:15:07;-1.30;99.90
36800;DHT22;22752;51.960;5.886;2023-03-01T03:17:38;-1.40;99.90
36800;DHT22;22752;51.960;5.886;2023-03-01T03:20:05;-1.50;99.90
36800;DHT22;22752;51.960;5.886;2023-03-01T03:22:32;-1.50;99.90
36800;DHT22;22752;51.960;5.886;2023-03-01T03:24:59;-1.70;99.90
36800;DHT22;22752;51.960;5.886;2023-03-01T03:27:25;-1.80;99.90
36800;DHT22;22752;51.960;5.886;2023-03-01T03:29:50;-1.80;99.90
36800;DHT22;22752;51.960;5.886;2023-03-01T03:32:16;-1.90;99.90
36800;DHT22;22752;51.960;5.886;2023-03-01T03:34:42;-2.00;99.90
36800;DHT22;22752;51.960;5.886;2023-03-01T03:37:07;-2.10;99.90
36800;DHT22;22752;51.960;5.886;2023-03-01T03:39:53;-2.10;99.90
36800;DHT22;22752;51.960;5.886;2023-03-01T03:42:21;-2.10;99.90
36800;DHT22;22752;51.960;5.886;2023-03-01T03:44:47;-2.20;99.90
36800;DHT22;22752;51.960;5.886;2023-03-01T03:47:13;-2.20;99.90
36800;DHT22;22752;51.960;5.886;2023-03-01T03:49:38;-2.20;99.90
36800;DHT22;22752;51.960;5.886;2023-03-01T03:52:04;-2.20;99.90
36800;DHT22;22752;51.960;5.886;2023-03-01T03:54:30;-2.20;99.90
36800;DHT22;22752;51.960;5.886;2023-03-01T03:56:56;-2.10;99.90
36800;DHT22;22752;51.960;5.886;2023-03-01T03:59:21;-2.00;99.90
36800;DHT22;22752;51.960;5.886;2023-03-01T04:01:47;-1.90;99.90
36800;DHT22;22752;51.960;5.886;2023-03-01T04:04:13;-1.90;99.90
36800;DHT22;22752;51.960;5.886;2023-03-01T04:06:38;-1.90;99.90
36800;DHT22;22752;51.960;5.886;2023-03-01T04:09:04;-1.90;99.90
36800;DHT22;22752;51.960;5.886;2023-03-01T04:11:30;-1.80;99.90
36800;DHT22;22752;51.960;5.886;2023-03-01T04:13:57;-1.80;99.90
36800;DHT22;22752;51.960;5.886;2023-03-01T04:16:24;-1.80;99.90
36800;DHT22;22752;51.960;5.886;2023-03-01T04:18:50;-1.90;99.90
36800;DHT22;22752;51.960;5.886;2023-03-01T04:21:15;-1.90;99.90
36800;DHT22;22752;51.960;5.886;2023-03-01T04:23:41;-1.90;99.90
36800;DHT22;22752;51.960;5.886;2023-03-01T04:26:07;-2.00;99.90
36800;DHT22;22752;51.960;5.886;2023-03-01T04:28:35;-2.00;99.90
36800;DHT22;22752;51.960;5.886;2023-03-01T04:31:07;-2.00;99.90
36800;DHT22;22752;51.960;5.886;2023-03-01T04:33:50;-2.00;99.90
36800;DHT22;22752;51.960;5.886;2023-03-01T04:36:22;-2.10;99.90
36800;DHT22;22752;51.960;5.886;2023-03-01T04:38:48;-2.10;99.90
36800;DHT22;22752;51.960;5.886;2023-03-01T04:41:16;-2.20;99.90
36800;DHT22;22752;51.960;5.886;2023-03-01T04:43:42;-2.20;99.90
36800;DHT22;22752;51.960;5.886;2023-03-01T04:46:14;-2.20;99.90
36800;DHT22;22752;51.960;5.886;2023-03-01T04:48:41;-2.20;99.90
36800;DHT22;22752;51.960;5.886;2023-03-01T04:51:07;-2.20;99.90
36800;DHT22;22752;51.960;5.886;2023-03-01T04:53:34;-2.20;99.90
36800;DHT22;22752;51.960;5.886;2023-03-01T04:56:02;-2.20;99.90
36800;DHT22;22752;51.960;5.886;2023-03-01T04:58:28;-2.20;99.90
36800;DHT22;22752;51.960;5.886;2023-03-01T05:00:54;-2.20;99.90
36800;DHT22;22752;51.960;5.886;2023-03-01T05:03:20;-2.30;99.90
36800;DHT22;22752;51.960;5.886;2023-03-01T05:05:48;-2.30;99.90
36800;DHT22;22752;51.960;5.886;2023-03-01T05:08:15;-2.40;99.90
36800;DHT22;22752;51.960;5.886;2023-03-01T05:10:50;-2.40;99.90
36800;DHT22;22752;51.960;5.886;2023-03-01T05:13:16;-2.50;99.90
36800;DHT22;22752;51.960;5.886;2023-03-01T05:15:54;-2.60;99.90
36800;DHT22;22752;51.960;5.886;2023-03-01T05:18:20;-2.60;99.90
36800;DHT22;22752;51.960;5.886;2023-03-01T05:20:46;-2.70;99.90
36800;DHT22;22752;51.960;5.886;2023-03-01T05:23:13;-2.80;99.90
36800;DHT22;22752;51.960;5.886;2023-03-01T05:25:38;-2.80;99.90
36800;DHT22;22752;51.960;5.886;2023-03-01T05:28:07;-2.80;99.90
36800;DHT22;22752;51.960;5.886;2023-03-01T05:30:36;-2.90;99.90
36800;DHT22;22752;51.960;5.886;2023-03-01T05:33:04;-2.90;99.90
36800;DHT22;22752;51.960;5.886;2023-03-01T05:35:32;-2.90;99.90
36800;DHT22;22752;51.960;5.886;2023-03-01T05:37:58;-3.00;99.90
36800;DHT22;22752;51.960;5.886;2023-03-01T05:40:24;-3.00;99.90
36800;DHT22;22752;51.960;5.886;2023-03-01T05:42:53;-3.00;99.90
36800;DHT22;22752;51.960;5.886;2023-03-01T05:45:21;-3.00;99.90
36800;DHT22;22752;51.960;5.886;2023-03-01T05:47:48;-3.00;99.90
36800;DHT22;22752;51.960;5.886;2023-03-01T05:50:22;-3.00;99.90
36800;DHT22;22752;51.960;5.886;2023-03-01T05:52:50;-3.00;99.90
36800;DHT22;22752;51.960;5.886;2023-03-01T05:55:18;-3.00;99.90
36800;DHT22;22752;51.960;5.886;2023-03-01T05:57:43;-3.00;99.90
36800;DHT22;22752;51.960;5.886;2023-03-01T06:00:10;-3.10;99.90
36800;DHT22;22752;51.960;5.886;2023-03-01T06:02:37;-3.10;99.90
36800;DHT22;22752;51.960;5.886;2023-03-01T06:05:04;-3.10;99.90
36800;DHT22;22752;51.960;5.886;2023-03-01T06:07:31;-3.10;99.90
36800;DHT22;22752;51.960;5.886;2023-03-01T06:09:57;-3.10;99.90
36800;DHT22;22752;51.960;5.886;2023-03-01T06:12:22;-3.10;99.90
36800;DHT22;22752;51.960;5.886;2023-03-01T06:14:48;-3.10;99.90
36800;DHT22;22752;51.960;5.886;2023-03-01T06:17:14;-3.10;99.90
36800;DHT22;22752;51.960;5.886;2023-03-01T06:19:39;-3.20;99.90
36800;DHT22;22752;51.960;5.886;2023-03-01T06:22:05;-3.10;99.90
36800;DHT22;22752;51.960;5.886;2023-03-01T06:24:31;-3.10;99.90
36800;DHT22;22752;51.960;5.886;2023-03-01T06:26:56;-3.10;99.90
36800;DHT22;22752;51.960;5.886;2023-03-01T06:29:22;-3.10;99.90
36800;DHT22;22752;51.960;5.886;2023-03-01T06:31:48;-3.10;99.90
36800;DHT22;22752;51.960;5.886;2023-03-01T06:34:14;-3.10;99.90
36800;DHT22;22752;51.960;5.886;2023-03-01T06:36:40;-3.10;99.90
36800;DHT22;22752;51.960;5.886;2023-03-01T06:39:06;-3.00;99.90
36800;DHT22;22752;51.960;5.886;2023-03-01T06:41:32;-3.00;99.90
36800;DHT22;22752;51.960;5.886;2023-03-01T06:43:59;-3.00;99.90
36800;DHT22;22752;51.960;5.886;2023-03-01T06:46:25;-3.00;99.90
36800;DHT22;22752;51.960;5.886;2023-03-01T06:48:51;-2.90;99.90
36800;DHT22;22752;51.960;5.886;2023-03-01T06:51:17;-2.70;99.90
36800;DHT22;22752;51.960;5.886;2023-03-01T06:53:42;-2.70;99.90
36800;DHT22;22752;51.960;5.886;2023-03-01T06:56:08;-2.70;99.90
36800;DHT22;22752;51.960;5.886;2023-03-01T06:58:33;-2.50;99.90
36800;DHT22;22752;51.960;5.886;2023-03-01T07:00:59;-2.30;99.90
36800;DHT22;22752;51.960;5.886;2023-03-01T07:03:25;-2.00;99.90
36800;DHT22;22752;51.960;5.886;2023-03-01T07:05:51;-1.80;99.90
36800;DHT22;22752;51.960;5.886;2023-03-01T07:08:18;-1.60;99.90
36800;DHT22;22752;51.960;5.886;2023-03-01T07:10:44;-1.30;99.90
36800;DHT22;22752;51.960;5.886;2023-03-01T07:13:10;-1.10;99.90
36800;DHT22;22752;51.960;5.886;2023-03-01T07:15:36;-0.90;99.90
36800;DHT22;22752;51.960;5.886;2023-03-01T07:18:02;-0.70;99.90
36800;DHT22;22752;51.960;5.886;2023-03-01T07:20:27;-0.50;99.90
36800;DHT22;22752;51.960;5.886;2023-03-01T07:22:54;-0.20;99.90
36800;DHT22;22752;51.960;5.886;2023-03-01T07:25:20;-0.10;99.90
36800;DHT22;22752;51.960;5.886;2023-03-01T07:27:52;0.10;99.90
36800;DHT22;22752;51.960;5.886;2023-03-01T07:30:19;0.20;99.90
36800;DHT22;22752;51.960;5.886;2023-03-01T07:32:44;0.40;99.90
36800;DHT22;22752;51.960;5.886;2023-03-01T07:35:11;0.50;99.90
36800;DHT22;22752;51.960;5.886;2023-03-01T07:37:36;0.60;99.90
36800;DHT22;22752;51.960;5.886;2023-03-01T07:40:02;0.80;99.90
36800;DHT22;22752;51.960;5.886;2023-03-01T07:42:28;0.90;99.90
36800;DHT22;22752;51.960;5.886;2023-03-01T07:44:53;1.00;99.90
36800;DHT22;22752;51.960;5.886;2023-03-01T07:47:19;1.20;99.90
36800;DHT22;22752;51.960;5.886;2023-03-01T07:49:45;1.50;99.90
36800;DHT22;22752;51.960;5.886;2023-03-01T07:52:11;1.90;99.90
36800;DHT22;22752;51.960;5.886;2023-03-01T07:54:38;2.40;99.90
36800;DHT22;22752;51.960;5.886;2023-03-01T07:57:03;2.80;99.90
36800;DHT22;22752;51.960;5.886;2023-03-01T07:59:29;3.20;99.90
36800;DHT22;22752;51.960;5.886;2023-03-01T08:01:58;3.60;99.90
36800;DHT22;22752;51.960;5.886;2023-03-01T08:04:24;3.90;99.90
36800;DHT22;22752;51.960;5.886;2023-03-01T08:06:53;4.00;99.90
36800;DHT22;22752;51.960;5.886;2023-03-01T08:09:19;4.20;99.90
36800;DHT22;22752;51.960;5.886;2023-03-01T08:11:45;4.30;99.90
36800;DHT22;22752;51.960;5.886;2023-03-01T08:14:10;4.40;99.90
36800;DHT22;22752;51.960;5.886;2023-03-01T08:16:36;4.60;99.90
36800;DHT22;22752;51.960;5.886;2023-03-01T08:19:10;4.70;99.90
36800;DHT22;22752;51.960;5.886;2023-03-01T08:21:36;4.70;99.90
36800;DHT22;22752;51.960;5.886;2023-03-01T08:24:03;4.70;99.90
36800;DHT22;22752;51.960;5.886;2023-03-01T08:26:30;4.70;99.90
36800;DHT22;22752;51.960;5.886;2023-03-01T08:28:55;4.80;99.90
36800;DHT22;22752;51.960;5.886;2023-03-01T08:31:24;4.80;99.90
36800;DHT22;22752;51.960;5.886;2023-03-01T08:33:52;4.80;99.90
36800;DHT22;22752;51.960;5.886;2023-03-01T08:36:21;4.70;99.90
36800;DHT22;22752;51.960;5.886;2023-03-01T08:38:47;4.50;99.90
36800;DHT22;22752;51.960;5.886;2023-03-01T08:41:13;4.30;99.90
36800;DHT22;22752;51.960;5.886;2023-03-01T08:43:40;4.00;99.90
36800;DHT22;22752;51.960;5.886;2023-03-01T08:46:05;3.90;99.90
36800;DHT22;22752;51.960;5.886;2023-03-01T08:48:31;3.80;99.90
36800;DHT22;22752;51.960;5.886;2023-03-01T08:50:57;3.60;99.90
36800;DHT22;22752;51.960;5.886;2023-03-01T08:53:23;3.60;99.90
36800;DHT22;22752;51.960;5.886;2023-03-01T08:55:48;3.60;99.90
36800;DHT22;22752;51.960;5.886;2023-03-01T08:58:14;3.60;99.90
36800;DHT22;22752;51.960;5.886;2023-03-01T09:00:40;3.60;99.90
36800;DHT22;22752;51.960;5.886;2023-03-01T09:03:06;3.60;99.90
36800;DHT22;22752;51.960;5.886;2023-03-01T09:05:33;3.50;99.90
36800;DHT22;22752;51.960;5.886;2023-03-01T09:07:59;3.50;99.90
36800;DHT22;22752;51.960;5.886;2023-03-01T09:10:25;3.50;99.90
36800;DHT22;22752;51.960;5.886;2023-03-01T09:12:51;3.40;99.90
36800;DHT22;22752;51.960;5.886;2023-03-01T09:15:17;3.50;99.90
36800;DHT22;22752;51.960;5.886;2023-03-01T09:17:42;3.50;99.90
36800;DHT22;22752;51.960;5.886;2023-03-01T09:20:09;3.50;99.90
36800;DHT22;22752;51.960;5.886;2023-03-01T09:22:35;3.50;99.90
36800;DHT22;22752;51.960;5.886;2023-03-01T09:25:01;3.60;99.90
36800;DHT22;22752;51.960;5.886;2023-03-01T09:27:26;3.70;99.90
36800;DHT22;22752;51.960;5.886;2023-03-01T09:29:52;3.80;99.90
36800;DHT22;22752;51.960;5.886;2023-03-01T09:32:18;3.80;99.90
36800;DHT22;22752;51.960;5.886;2023-03-01T09:34:43;3.90;99.90
36800;DHT22;22752;51.960;5.886;2023-03-01T09:37:30;3.90;99.90
36800;DHT22;22752;51.960;5.886;2023-03-01T09:39:56;3.90;99.90
36800;DHT22;22752;51.960;5.886;2023-03-01T09:42:22;3.90;99.90
36800;DHT22;22752;51.960;5.886;2023-03-01T09:45:10;3.90;99.90
36800;DHT22;22752;51.960;5.886;2023-03-01T09:47:37;4.00;99.90
36800;DHT22;22752;51.960;5.886;2023-03-01T09:50:20;4.00;99.90
36800;DHT22;22752;51.960;5.886;2023-03-01T09:52:47;4.00;99.90
36800;DHT22;22752;51.960;5.886;2023-03-01T09:55:17;4.10;99.90
36800;DHT22;22752;51.960;5.886;2023-03-01T10:00:32;4.20;99.90
36800;DHT22;22752;51.960;5.886;2023-03-01T10:03:28;4.20;99.90
36800;DHT22;22752;51.960;5.886;2023-03-01T10:08:34;4.20;99.90
36800;DHT22;22752;51.960;5.886;2023-03-01T10:11:04;4.20;99.90
36800;DHT22;22752;51.960;5.886;2023-03-01T10:19:11;4.20;99.90
36800;DHT22;22752;51.960;5.886;2023-03-01T10:21:42;4.30;99.90
36800;DHT22;22752;51.960;5.886;2023-03-01T10:24:18;4.30;99.90
36800;DHT22;22752;51.960;5.886;2023-03-01T10:26:57;4.40;99.90
36800;DHT22;22752;51.960;5.886;2023-03-01T10:29:35;4.40;99.90
36800;DHT22;22752;51.960;5.886;2023-03-01T10:32:04;4.40;99.90
36800;DHT22;22752;51.960;5.886;2023-03-01T10:34:34;4.50;99.90
36800;DHT22;22752;51.960;5.886;2023-03-01T10:37:13;4.60;99.90
36800;DHT22;22752;51.960;5.886;2023-03-01T10:42:36;4.60;99.90
36800;DHT22;22752;51.960;5.886;2023-03-01T10:45:29;4.50;99.90
36800;DHT22;22752;51.960;5.886;2023-03-01T10:50:38;4.60;99.90
36800;DHT22;22752;51.960;5.886;2023-03-01T10:53:05;4.70;99.90
36800;DHT22;22752;51.960;5.886;2023-03-01T10:55:41;4.70;99.80
36800;DHT22;22752;51.960;5.886;2023-03-01T10:58:21;4.80;99.80
36800;DHT22;22752;51.960;5.886;2023-03-01T11:03:22;4.80;99.40
36800;DHT22;22752;51.960;5.886;2023-03-01T11:05:56;4.80;99.10
36800;DHT22;22752;51.960;5.886;2023-03-01T11:08:43;4.80;99.50
36800;DHT22;22752;51.960;5.886;2023-03-01T11:11:31;4.90;99.10
36800;DHT22;22752;51.960;5.886;2023-03-01T11:16:31;5.00;98.90
36800;DHT22;22752;51.960;5.886;2023-03-01T11:19:19;5.00;98.80
36800;DHT22;22752;51.960;5.886;2023-03-01T11:21:51;5.10;98.10
36800;DHT22;22752;51.960;5.886;2023-03-01T11:24:19;5.00;98.40
36800;DHT22;22752;51.960;5.886;2023-03-01T11:26:52;5.10;98.80
36800;DHT22;22752;51.960;5.886;2023-03-01T11:31:56;5.30;98.30
36800;DHT22;22752;51.960;5.886;2023-03-01T11:34:50;5.30;97.70
36800;DHT22;22752;51.960;5.886;2023-03-01T11:40:05;5.20;97.10
36800;DHT22;22752;51.960;5.886;2023-03-01T11:43:03;5.20;97.30
36800;DHT22;22752;51.960;5.886;2023-03-01T11:45:43;5.20;96.90
36800;DHT22;22752;51.960;5.886;2023-03-01T11:48:34;5.30;97.70
36800;DHT22;22752;51.960;5.886;2023-03-01T11:51:09;5.40;97.60
36800;DHT22;22752;51.960;5.886;2023-03-01T11:54:03;5.40;97.00
36800;DHT22;22752;51.960;5.886;2023-03-01T11:56:38;5.40;96.80
36800;DHT22;22752;51.960;5.886;2023-03-01T12:26:35;5.70;96.20
36800;DHT22;22752;51.960;5.886;2023-03-01T12:29:31;5.70;96.40
36800;DHT22;22752;51.960;5.886;2023-03-01T12:35:05;5.80;94.80
36800;DHT22;22752;51.960;5.886;2023-03-01T12:37:59;5.80;95.10
36800;DHT22;22752;51.960;5.886;2023-03-01T12:40:52;5.80;95.60
36800;DHT22;22752;51.960;5.886;2023-03-01T12:46:45;5.80;94.80
36800;DHT22;22752;51.960;5.886;2023-03-01T12:49:16;5.90;94.70
36800;DHT22;22752;51.960;5.886;2023-03-01T12:54:30;6.00;95.40
36800;DHT22;22752;51.960;5.886;2023-03-01T12:59:38;6.00;94.70
36800;DHT22;22752;51.960;5.886;2023-03-01T13:07:40;6.20;93.70
36800;DHT22;22752;51.960;5.886;2023-03-01T13:12:53;6.20;94.40
36800;DHT22;22752;51.960;5.886;2023-03-01T13:17:55;6.40;92.50
36800;DHT22;22752;51.960;5.886;2023-03-01T13:23:30;6.40;92.00
36800;DHT22;22752;51.960;5.886;2023-03-01T13:31:08;6.40;92.40
36800;DHT22;22752;51.960;5.886;2023-03-01T13:33:43;6.50;93.30
36800;DHT22;22752;51.960;5.886;2023-03-01T13:36:09;6.60;93.10
36800;DHT22;22752;51.960;5.886;2023-03-01T13:41:12;6.70;92.70
36800;DHT22;22752;51.960;5.886;2023-03-01T13:43:41;6.70;92.40
36800;DHT22;22752;51.960;5.886;2023-03-01T13:48:45;6.70;92.10
36800;DHT22;22752;51.960;5.886;2023-03-01T13:51:13;6.70;91.90
36800;DHT22;22752;51.960;5.886;2023-03-01T13:53:44;6.70;92.00
36800;DHT22;22752;51.960;5.886;2023-03-01T13:56:26;6.90;91.80
36800;DHT22;22752;51.960;5.886;2023-03-01T13:59:02;6.90;90.90
36800;DHT22;22752;51.960;5.886;2023-03-01T14:01:31;6.90;91.20
36800;DHT22;22752;51.960;5.886;2023-03-01T14:03:58;6.90;90.80
36800;DHT22;22752;51.960;5.886;2023-03-01T14:06:29;7.00;90.90
36800;DHT22;22752;51.960;5.886;2023-03-01T14:09:17;7.00;91.10
36800;DHT22;22752;51.960;5.886;2023-03-01T14:20:09;7.10;90.90
36800;DHT22;22752;51.960;5.886;2023-03-01T14:22:37;7.10;90.20
36800;DHT22;22752;51.960;5.886;2023-03-01T14:25:19;7.10;90.70
36800;DHT22;22752;51.960;5.886;2023-03-01T14:27:58;7.20;90.60
36800;DHT22;22752;51.960;5.886;2023-03-01T14:30:27;7.20;90.90
36800;DHT22;22752;51.960;5.886;2023-03-01T14:33:17;7.20;91.10
36800;DHT22;22752;51.960;5.886;2023-03-01T14:36:02;7.30;91.00
36800;DHT22;22752;51.960;5.886;2023-03-01T14:38:37;7.30;90.60
36800;DHT22;22752;51.960;5.886;2023-03-01T14:41:20;7.30;91.00
36800;DHT22;22752;51.960;5.886;2023-03-01T14:46:24;7.40;90.30
36800;DHT22;22752;51.960;5.886;2023-03-01T14:48:54;7.30;90.50
36800;DHT22;22752;51.960;5.886;2023-03-01T14:51:22;7.30;90.00
36800;DHT22;22752;51.960;5.886;2023-03-01T14:53:48;7.30;89.90
36800;DHT22;22752;51.960;5.886;2023-03-01T14:56:16;7.30;89.60
36800;DHT22;22752;51.960;5.886;2023-03-01T14:58:43;7.30;89.40
36800;DHT22;22752;51.960;5.886;2023-03-01T15:01:15;7.20;90.30
36800;DHT22;22752;51.960;5.886;2023-03-01T15:03:49;7.30;90.30
36800;DHT22;22752;51.960;5.886;2023-03-01T15:06:18;7.20;88.20
36800;DHT22;22752;51.960;5.886;2023-03-01T15:08:51;7.20;87.70
36800;DHT22;22752;51.960;5.886;2023-03-01T15:11:24;7.20;88.10
36800;DHT22;22752;51.960;5.886;2023-03-01T15:13:52;7.10;87.80
36800;DHT22;22752;51.960;5.886;2023-03-01T15:16:31;7.10;87.50
36800;DHT22;22752;51.960;5.886;2023-03-01T15:19:06;7.10;86.50
36800;DHT22;22752;51.960;5.886;2023-03-01T15:21:38;7.10;86.40
36800;DHT22;22752;51.960;5.886;2023-03-01T15:24:20;7.00;86.80
36800;DHT22;22752;51.960;5.886;2023-03-01T15:27:13;7.00;86.60
36800;DHT22;22752;51.960;5.886;2023-03-01T15:29:39;6.90;87.10
36800;DHT22;22752;51.960;5.886;2023-03-01T15:34:59;6.90;88.60
36800;DHT22;22752;51.960;5.886;2023-03-01T15:37:47;6.90;88.50
36800;DHT22;22752;51.960;5.886;2023-03-01T15:40:25;6.90;88.20
36800;DHT22;22752;51.960;5.886;2023-03-01T15:42:58;6.90;88.40
36800;DHT22;22752;51.960;5.886;2023-03-01T15:45:26;6.90;88.80
36800;DHT22;22752;51.960;5.886;2023-03-01T15:47:55;6.90;89.20
36800;DHT22;22752;51.960;5.886;2023-03-01T15:50:24;6.80;88.70
36800;DHT22;22752;51.960;5.886;2023-03-01T15:52:51;6.80;88.90
36800;DHT22;22752;51.960;5.886;2023-03-01T15:55:21;6.80;89.30
36800;DHT22;22752;51.960;5.886;2023-03-01T15:57:48;6.80;89.60
36800;DHT22;22752;51.960;5.886;2023-03-01T16:00:15;6.80;90.00
36800;DHT22;22752;51.960;5.886;2023-03-01T16:02:42;6.80;89.90
36800;DHT22;22752;51.960;5.886;2023-03-01T16:05:26;6.80;90.10
36800;DHT22;22752;51.960;5.886;2023-03-01T16:07:52;6.80;90.00
36800;DHT22;22752;51.960;5.886;2023-03-01T16:10:19;6.70;89.90
36800;DHT22;22752;51.960;5.886;2023-03-01T16:12:45;6.70;90.00
36800;DHT22;22752;51.960;5.886;2023-03-01T16:15:23;6.70;90.10
36800;DHT22;22752;51.960;5.886;2023-03-01T16:17:49;6.60;90.10
36800;DHT22;22752;51.960;5.886;2023-03-01T16:20:15;6.60;89.70
36800;DHT22;22752;51.960;5.886;2023-03-01T16:22:42;6.70;88.90
36800;DHT22;22752;51.960;5.886;2023-03-01T16:25:10;6.70;88.70
36800;DHT22;22752;51.960;5.886;2023-03-01T16:27:36;6.60;88.80
36800;DHT22;22752;51.960;5.886;2023-03-01T16:30:01;6.60;89.70
36800;DHT22;22752;51.960;5.886;2023-03-01T16:32:27;6.50;88.90
36800;DHT22;22752;51.960;5.886;2023-03-01T16:34:53;6.50;88.70
36800;DHT22;22752;51.960;5.886;2023-03-01T16:37:18;6.50;89.40
36800;DHT22;22752;51.960;5.886;2023-03-01T16:39:44;6.40;88.80
36800;DHT22;22752;51.960;5.886;2023-03-01T16:42:11;6.40;88.60
36800;DHT22;22752;51.960;5.886;2023-03-01T16:44:36;6.40;89.00
36800;DHT22;22752;51.960;5.886;2023-03-01T16:47:03;6.40;88.90
36800;DHT22;22752;51.960;5.886;2023-03-01T16:49:28;6.30;89.10
36800;DHT22;22752;51.960;5.886;2023-03-01T16:51:54;6.30;89.50
36800;DHT22;22752;51.960;5.886;2023-03-01T16:54:20;6.20;89.70
36800;DHT22;22752;51.960;5.886;2023-03-01T16:56:45;6.10;90.00
36800;DHT22;22752;51.960;5.886;2023-03-01T16:59:11;6.10;90.30
36800;DHT22;22752;51.960;5.886;2023-03-01T17:01:36;5.90;90.30
36800;DHT22;22752;51.960;5.886;2023-03-01T17:04:06;5.90;90.30
36800;DHT22;22752;51.960;5.886;2023-03-01T17:06:32;5.90;90.60
36800;DHT22;22752;51.960;5.886;2023-03-01T17:08:58;5.80;90.70
36800;DHT22;22752;51.960;5.886;2023-03-01T17:11:25;5.80;90.90
36800;DHT22;22752;51.960;5.886;2023-03-01T17:13:50;5.70;91.00
36800;DHT22;22752;51.960;5.886;2023-03-01T17:16:18;5.70;91.00
36800;DHT22;22752;51.960;5.886;2023-03-01T17:18:45;5.70;91.30
36800;DHT22;22752;51.960;5.886;2023-03-01T17:21:12;5.70;91.40
36800;DHT22;22752;51.960;5.886;2023-03-01T17:23:40;5.60;91.40
36800;DHT22;22752;51.960;5.886;2023-03-01T17:26:06;5.60;91.50
36800;DHT22;22752;51.960;5.886;2023-03-01T17:28:36;5.60;91.60
36800;DHT22;22752;51.960;5.886;2023-03-01T17:31:03;5.60;91.70
36800;DHT22;22752;51.960;5.886;2023-03-01T17:33:30;5.50;91.90
36800;DHT22;22752;51.960;5.886;2023-03-01T17:35:56;5.50;91.90
36800;DHT22;22752;51.960;5.886;2023-03-01T17:38:22;5.40;92.10
36800;DHT22;22752;51.960;5.886;2023-03-01T17:40:48;5.30;92.20
36800;DHT22;22752;51.960;5.886;2023-03-01T17:43:15;5.30;92.20
36800;DHT22;22752;51.960;5.886;2023-03-01T17:45:41;5.40;92.20